createdAt,value
2018-03-06T00:01:27.183Z,48.83
2018-03-06T00:03:58.844Z,48.43
2018-03-06T00:06:29.662Z,55.57
2018-03-06T00:09:01.371Z,54.70
2018-03-06T00:11:33.628Z,54.77
2018-03-06T00:14:05.545Z,59.33
2018-03-06T00:16:36.297Z,53.33
2018-03-06T00:19:07.010Z,55.37
2018-03-06T00:21:37.439Z,59.30
2018-03-06T00:24:08.159Z,59.73
2018-03-06T00:26:38.710Z,60.40
2018-03-06T00:29:09.406Z,76.33
2018-03-06T00:35:17.029Z,65.10
2018-03-06T00:37:47.377Z,54.63
2018-03-06T00:40:18.116Z,61.23
2018-03-06T00:42:49.326Z,53.43
2018-03-06T00:45:20.106Z,55.93
2018-03-06T00:47:51.030Z,62.13
2018-03-06T00:50:22.265Z,58.30
2018-03-06T00:52:53.551Z,63.23
2018-03-06T00:55:24.180Z,58.40
2018-03-06T00:57:54.757Z,61.53
2018-03-06T01:00:25.596Z,60.60
2018-03-06T01:02:56.097Z,66.00
2018-03-06T01:05:26.918Z,65.03
2018-03-06T01:07:57.522Z,62.80
2018-03-06T01:10:29.017Z,64.37
2018-03-06T01:12:59.705Z,71.53
2018-03-06T01:15:30.216Z,57.87
2018-03-06T01:18:01.525Z,66.67
2018-03-06T01:20:31.804Z,60.03
2018-03-06T01:23:03.369Z,61.63
2018-03-06T01:25:34.324Z,68.70
2018-03-06T01:28:04.695Z,70.57
2018-03-06T01:30:36.241Z,74.13
2018-03-06T01:33:07.309Z,68.10
2018-03-06T01:35:38.697Z,65.97
2018-03-06T01:38:09.138Z,66.67
2018-03-06T01:40:40.921Z,69.17
2018-03-06T01:43:12.619Z,66.47
2018-03-06T01:45:43.701Z,67.83
2018-03-06T01:48:14.264Z,79.40
2018-03-06T01:50:44.621Z,74.03
2018-03-06T01:53:15.685Z,67.60
2018-03-06T01:55:46.476Z,66.63
2018-03-06T01:58:17.352Z,74.17
2018-03-06T02:00:48.117Z,74.90
2018-03-06T02:03:20.352Z,80.07
2018-03-06T02:05:52.305Z,90.80
2018-03-06T02:08:23.137Z,94.87
2018-03-06T02:10:55.102Z,108.77
2018-03-06T02:13:26.655Z,93.60
2018-03-06T02:15:57.373Z,100.87
2018-03-06T02:18:27.690Z,106.77
2018-03-06T02:20:58.828Z,92.87
2018-03-06T02:23:31.092Z,101.70
2018-03-06T02:26:01.353Z,92.43
2018-03-06T02:28:31.707Z,105.43
2018-03-06T02:31:02.489Z,80.83
2018-03-06T02:33:33.743Z,84.67
2018-03-06T02:36:04.439Z,80.30
2018-03-06T02:38:34.722Z,78.07
2018-03-06T02:41:05.878Z,72.27
2018-03-06T02:43:36.437Z,76.80
2018-03-06T02:46:11.949Z,80.60
2018-03-06T02:48:42.633Z,95.93
2018-03-06T02:51:13.698Z,96.03
2018-03-06T02:53:44.746Z,99.50
2018-03-06T02:56:15.342Z,95.87
2018-03-06T02:58:45.690Z,87.43
2018-03-06T03:01:16.333Z,92.83
2018-03-06T03:03:46.996Z,95.37
2018-03-06T03:06:17.553Z,87.77
2018-03-06T03:08:47.868Z,93.47
2018-03-06T03:11:19.024Z,93.53
2018-03-06T03:13:49.472Z,92.87
2018-03-06T03:16:20.279Z,97.80
2018-03-06T03:18:51.765Z,134.60
2018-03-06T03:21:22.205Z,118.47
2018-03-06T03:23:53.402Z,111.43
2018-03-06T03:26:23.943Z,115.60
2018-03-06T03:28:55.495Z,121.77
2018-03-06T03:31:25.790Z,122.27
2018-03-06T03:33:56.883Z,134.40
2018-03-06T03:36:28.299Z,134.30
2018-03-06T03:38:59.349Z,117.43
2018-03-06T03:41:30.139Z,118.30
2018-03-06T03:44:00.454Z,126.80
2018-03-06T03:46:31.002Z,129.53
2018-03-06T03:49:01.601Z,112.97
2018-03-06T03:51:32.151Z,129.47
2018-03-06T03:54:03.353Z,117.37
2018-03-06T03:56:34.002Z,136.57
2018-03-06T03:59:05.245Z,143.63
2018-03-06T04:01:37.177Z,151.57
2018-03-06T04:04:07.734Z,135.03
2018-03-06T04:06:38.138Z,134.07
2018-03-06T04:09:08.478Z,161.93
2018-03-06T04:11:57.328Z,148.43
2018-03-06T04:14:31.038Z,157.23
2018-03-06T04:17:02.632Z,147.27
2018-03-06T04:19:33.035Z,137.20
2018-03-06T04:22:03.448Z,149.00
2018-03-06T04:24:34.058Z,128.00
2018-03-06T04:27:06.030Z,142.57
2018-03-06T04:29:37.272Z,165.73
2018-03-06T04:32:07.952Z,171.53
2018-03-06T04:34:38.333Z,146.20
2018-03-06T04:37:08.622Z,160.60
2018-03-06T04:39:38.989Z,171.33
2018-03-06T04:42:09.316Z,148.00
2018-03-06T04:44:39.698Z,165.10
2018-03-06T04:47:11.179Z,200.30
2018-03-06T04:49:41.526Z,193.20
2018-03-06T04:52:11.887Z,158.07
2018-03-06T04:54:42.198Z,145.03
2018-03-06T04:57:12.602Z,147.10
2018-03-06T04:59:42.986Z,144.43
2018-03-06T05:02:13.588Z,147.07
2018-03-06T05:04:44.819Z,149.43
2018-03-06T05:07:15.409Z,139.93
2018-03-06T05:09:45.779Z,143.27
2018-03-06T05:12:16.371Z,153.03
2018-03-06T05:14:46.958Z,162.80
2018-03-06T05:17:17.325Z,176.20
2018-03-06T05:19:47.689Z,150.47
2018-03-06T05:22:18.302Z,165.47
2018-03-06T05:24:48.668Z,178.93
2018-03-06T05:27:19.590Z,171.97
2018-03-06T05:29:49.996Z,165.87
2018-03-06T05:32:20.611Z,167.83
2018-03-06T05:34:51.254Z,177.10
2018-03-06T05:37:21.608Z,163.57
2018-03-06T05:39:52.874Z,187.87
2018-03-06T05:42:23.628Z,186.47
2018-03-06T05:44:54.367Z,205.83
2018-03-06T05:47:24.803Z,196.70
2018-03-06T05:49:55.467Z,179.90
2018-03-06T05:52:26.004Z,184.07
2018-03-06T05:54:57.056Z,200.03
2018-03-06T05:57:28.201Z,210.17
2018-03-06T06:00:00.278Z,184.43
2018-03-06T06:02:30.944Z,191.13
2018-03-06T06:05:01.821Z,185.53
2018-03-06T06:07:33.529Z,208.13
2018-03-06T06:10:04.414Z,192.27
2018-03-06T06:12:35.813Z,196.40
2018-03-06T06:15:06.906Z,194.43
2018-03-06T06:17:38.237Z,207.47
2018-03-06T06:20:08.808Z,203.23
2018-03-06T06:22:39.129Z,201.40
2018-03-06T06:25:11.067Z,189.27
2018-03-06T06:27:41.837Z,199.77
2018-03-06T06:30:12.222Z,221.50
2018-03-06T06:32:43.691Z,237.73
2018-03-06T06:35:14.831Z,243.77
2018-03-06T06:37:53.450Z,252.47
2018-03-06T06:40:25.166Z,277.87
2018-03-06T06:42:56.201Z,266.33
2018-03-06T06:45:37.529Z,256.77
2018-03-06T06:48:08.163Z,260.70
2018-03-06T06:50:39.810Z,272.37
2018-03-06T06:53:13.172Z,256.90
2018-03-06T06:55:49.721Z,273.67
2018-03-06T06:58:25.181Z,258.97
2018-03-06T07:01:18.807Z,253.80
2018-03-06T07:03:51.081Z,244.37
2018-03-06T07:06:27.610Z,240.87
2018-03-06T07:12:17.041Z,231.57
2018-03-06T07:14:58.071Z,222.60
2018-03-06T07:17:28.981Z,217.60
2018-03-06T07:20:16.287Z,203.73
2018-03-06T07:23:25.368Z,198.37
2018-03-06T08:29:08.049Z,96.40
2018-03-06T08:31:51.913Z,94.97
2018-03-06T08:34:26.785Z,92.00
2018-03-06T08:36:59.493Z,97.80
2018-03-06T08:39:30.710Z,95.60
2018-03-06T08:42:01.255Z,89.23
2018-03-06T08:44:31.927Z,87.37
2018-03-06T08:47:02.250Z,91.03
2018-03-06T08:49:34.206Z,93.00
2018-03-06T08:52:04.662Z,87.43
2018-03-06T08:54:35.109Z,94.73
2018-03-06T08:57:05.442Z,91.23
2018-03-06T08:59:35.814Z,88.23
2018-03-06T09:02:06.191Z,88.83
2018-03-06T09:04:36.726Z,86.23
2018-03-06T09:07:07.259Z,86.00
2018-03-06T09:09:37.913Z,88.33
2018-03-06T09:12:08.337Z,79.87
2018-03-06T09:14:39.580Z,83.00
2018-03-06T09:17:11.053Z,83.03
2018-03-06T09:19:42.096Z,85.50
2018-03-06T09:22:14.663Z,83.00
2018-03-06T09:24:45.843Z,85.87
2018-03-06T09:27:16.142Z,81.90
2018-03-06T09:29:47.371Z,86.17
2018-03-06T09:32:18.530Z,88.80
2018-03-06T09:34:49.654Z,84.53
2018-03-06T09:37:20.505Z,87.30
2018-03-06T09:39:52.644Z,113.93
2018-03-06T09:42:23.277Z,80.80
2018-03-06T09:44:54.257Z,76.27
2018-03-06T09:47:25.481Z,81.97
2018-03-06T09:49:56.654Z,75.00
2018-03-06T09:52:27.031Z,78.67
2018-03-06T09:54:57.478Z,71.70
2018-03-06T09:57:28.626Z,80.37
2018-03-06T09:59:59.222Z,80.90
2018-03-06T10:02:30.355Z,80.13
2018-03-06T10:05:00.910Z,79.80
2018-03-06T10:07:32.001Z,79.67
2018-03-06T10:10:02.381Z,70.93
2018-03-06T10:12:33.051Z,72.53
2018-03-06T10:15:03.526Z,71.17
2018-03-06T10:17:34.652Z,71.93
2018-03-06T10:20:07.124Z,75.73
2018-03-06T10:22:37.452Z,67.50
2018-03-06T10:25:07.965Z,68.47
2018-03-06T10:27:38.298Z,76.13
2018-03-06T10:30:12.073Z,74.33
2018-03-06T10:32:42.699Z,71.47
2018-03-06T10:35:13.141Z,69.80
2018-03-06T10:37:43.664Z,76.57
2018-03-06T10:40:14.394Z,70.53
2018-03-06T10:42:44.850Z,72.90
2018-03-06T10:45:15.351Z,70.93
2018-03-06T10:47:45.897Z,75.77
2018-03-06T10:50:16.522Z,76.70
2018-03-06T10:52:47.217Z,70.23
2018-03-06T10:55:17.950Z,75.43
2018-03-06T10:57:49.184Z,72.53
2018-03-06T11:00:23.540Z,77.80
2018-03-06T11:02:54.961Z,74.67
2018-03-06T11:05:26.093Z,69.10
2018-03-06T11:07:56.405Z,68.33
2018-03-06T11:10:27.531Z,72.50
2018-03-06T11:12:57.880Z,62.87
2018-03-06T11:15:28.369Z,71.30
2018-03-06T11:17:58.690Z,67.27
2018-03-06T11:20:29.520Z,75.83
2018-03-06T11:23:01.802Z,72.37
2018-03-06T11:25:32.898Z,69.97
2018-03-06T11:28:04.372Z,69.20
2018-03-06T11:30:35.593Z,81.37
2018-03-06T11:33:05.578Z,66.37
2018-03-06T11:35:36.692Z,65.30
2018-03-06T11:38:07.925Z,63.33
2018-03-06T11:40:38.362Z,68.03
2018-03-06T11:43:08.712Z,69.33
2018-03-06T11:45:39.801Z,63.97
2018-03-06T11:48:10.413Z,67.80
2018-03-06T11:50:40.918Z,67.03
2018-03-06T11:53:12.060Z,64.57
2018-03-06T11:55:43.254Z,66.67
2018-03-06T11:58:13.861Z,72.10
2018-03-06T12:00:44.219Z,66.30
2018-03-06T12:03:15.931Z,66.83
2018-03-06T12:05:47.037Z,64.50
2018-03-06T12:08:17.474Z,60.10
2018-03-06T12:10:47.886Z,62.23
2018-03-06T12:13:19.089Z,62.40
2018-03-06T12:15:49.467Z,64.03
2018-03-06T12:18:21.099Z,64.00
2018-03-06T12:20:51.844Z,61.07
2018-03-06T12:23:23.936Z,64.63
2018-03-06T12:25:55.060Z,80.80
2018-03-06T12:28:26.139Z,57.80
2018-03-06T12:30:56.553Z,54.97
2018-03-06T12:33:27.449Z,58.13
2018-03-06T12:35:58.551Z,58.47
2018-03-06T12:38:28.848Z,63.03
2018-03-06T12:40:59.338Z,57.30
2018-03-06T12:43:30.670Z,61.87
2018-03-06T12:46:00.998Z,60.17
2018-03-06T12:48:31.727Z,54.53
2018-03-06T12:51:02.478Z,54.87
2018-03-06T12:53:33.038Z,60.07
2018-03-06T12:56:03.454Z,54.83
2018-03-06T12:58:33.805Z,56.83
2018-03-06T13:01:05.202Z,57.10
2018-03-06T13:03:35.510Z,58.43
2018-03-06T13:06:06.501Z,54.03
2018-03-06T13:08:37.471Z,53.50
2018-03-06T13:11:08.095Z,56.30
2018-03-06T13:13:38.460Z,58.60
2018-03-06T13:16:08.771Z,54.40
2018-03-06T13:18:39.889Z,54.27
2018-03-06T13:21:10.293Z,50.23
2018-03-06T13:23:40.973Z,54.10
2018-03-06T13:26:12.091Z,51.23
2018-03-06T13:28:43.230Z,50.03
2018-03-06T13:31:13.582Z,55.07
2018-03-06T13:33:43.940Z,55.80
2018-03-06T13:36:14.283Z,51.90
2018-03-06T13:38:44.962Z,54.57
2018-03-06T13:41:15.291Z,48.97
2018-03-06T13:43:46.560Z,48.50
2018-03-06T13:46:17.036Z,49.13
2018-03-06T13:48:47.669Z,49.47
2018-03-06T13:51:18.248Z,50.67
2018-03-06T13:53:48.677Z,53.37
2018-03-06T13:56:19.150Z,49.93
2018-03-06T13:58:49.585Z,51.47
2018-03-06T14:01:20.255Z,47.13
2018-03-06T14:03:51.908Z,50.40
2018-03-06T14:06:22.349Z,50.67
2018-03-06T14:08:53.648Z,53.07
2018-03-06T14:11:24.320Z,60.17
2018-03-06T14:13:55.590Z,54.50
2018-03-06T14:16:25.935Z,55.30
2018-03-06T14:18:56.387Z,50.40
2018-03-06T14:21:26.963Z,53.73
2018-03-06T14:23:58.158Z,50.87
2018-03-06T14:26:29.271Z,46.50
2018-03-06T14:28:59.843Z,50.13
2018-03-06T14:31:31.026Z,50.47
2018-03-06T14:34:01.339Z,50.60
2018-03-06T14:36:31.876Z,49.27
2018-03-06T14:39:02.398Z,51.47
2018-03-06T14:41:32.977Z,49.37
2018-03-06T14:44:03.418Z,47.50
2018-03-06T14:46:34.790Z,54.00
2018-03-06T14:49:05.490Z,50.53
2018-03-06T14:51:35.931Z,50.60
2018-03-06T14:54:07.114Z,46.23
2018-03-06T14:56:37.435Z,44.83
2018-03-06T14:59:07.711Z,51.27
2018-03-06T15:01:38.698Z,47.37
2018-03-06T15:04:09.085Z,47.43
2018-03-06T15:06:40.368Z,47.80
2018-03-06T15:09:11.644Z,49.57
2018-03-06T15:11:42.011Z,48.07
2018-03-06T15:14:13.314Z,48.90
2018-03-06T15:16:43.686Z,46.20
2018-03-06T15:19:14.058Z,49.97
2018-03-06T15:21:44.407Z,45.00
2018-03-06T15:24:15.799Z,45.47
2018-03-06T15:26:46.162Z,44.97
2018-03-06T15:29:16.594Z,44.13
2018-03-06T15:31:47.022Z,43.93
2018-03-06T15:34:17.667Z,44.47
2018-03-06T15:37:50.546Z,48.50
2018-03-06T15:40:21.887Z,49.43
2018-03-06T15:42:52.975Z,48.73
2018-03-06T15:45:23.334Z,45.00
2018-03-06T15:47:54.351Z,44.67
2018-03-06T15:50:24.963Z,42.13
2018-03-06T15:52:55.986Z,53.47
2018-03-06T15:55:27.477Z,47.67
2018-03-06T15:58:00.920Z,47.73
2018-03-06T16:00:31.873Z,54.00
2018-03-06T16:03:02.259Z,48.97
2018-03-06T16:05:35.182Z,49.47
2018-03-06T16:08:06.958Z,49.93
2018-03-06T16:10:39.391Z,52.03
2018-03-06T16:13:10.154Z,53.87
2018-03-06T16:15:42.585Z,58.20
2018-03-06T16:18:14.612Z,60.57
2018-03-06T16:20:48.714Z,62.83
2018-03-06T16:23:29.058Z,55.10
2018-03-06T16:26:04.414Z,56.80
2018-03-06T16:28:34.962Z,60.73
2018-03-06T16:31:06.878Z,57.77
2018-03-06T16:33:38.720Z,58.70
2018-03-06T16:36:09.433Z,64.97
2018-03-06T16:38:40.450Z,60.63
2018-03-06T16:41:13.102Z,64.53
2018-03-06T16:43:50.671Z,61.37
2018-03-06T16:46:25.618Z,53.20
2018-03-06T16:49:00.432Z,65.10
2018-03-06T16:51:32.767Z,65.37
2018-03-06T16:54:04.663Z,71.20
2018-03-06T16:56:39.344Z,62.43
2018-03-06T16:59:10.380Z,67.10
2018-03-06T17:01:40.850Z,67.13
2018-03-06T17:04:11.227Z,72.63
2018-03-06T17:06:41.764Z,69.10
2018-03-06T17:09:12.283Z,65.80
2018-03-06T17:11:43.623Z,67.87
2018-03-06T17:14:14.042Z,66.20
2018-03-06T17:16:44.732Z,75.40
2018-03-06T17:19:15.443Z,83.10
2018-03-06T17:21:46.225Z,77.30
2018-03-06T17:24:16.702Z,70.53
2018-03-06T17:26:47.478Z,73.53
2018-03-06T17:29:20.119Z,76.73
2018-03-06T17:31:52.882Z,78.00
2018-03-06T17:34:24.463Z,80.40
2018-03-06T17:36:56.337Z,77.80
2018-03-06T17:39:28.515Z,75.83
2018-03-06T17:41:59.314Z,77.83
2018-03-06T17:44:30.396Z,75.10
2018-03-06T17:47:02.064Z,81.67
2018-03-06T17:49:32.851Z,86.83
2018-03-06T17:52:04.286Z,86.83
2018-03-06T17:54:36.800Z,82.63
2018-03-06T17:57:07.625Z,81.90
2018-03-06T17:59:39.439Z,86.97
2018-03-06T18:02:11.403Z,82.00
2018-03-06T18:04:42.999Z,82.90
2018-03-06T18:07:15.377Z,84.13
2018-03-06T18:09:50.587Z,87.67
2018-03-06T18:12:24.662Z,77.77
2018-03-06T18:14:56.295Z,85.37
2018-03-06T18:17:27.023Z,81.80
2018-03-06T18:19:57.870Z,76.93
2018-03-06T18:22:30.464Z,85.83
2018-03-06T18:25:02.191Z,92.23
2018-03-06T18:27:34.883Z,85.73
2018-03-06T18:37:17.326Z,82.37
2018-03-06T18:39:48.088Z,84.87
2018-03-06T18:42:19.072Z,87.27
2018-03-06T18:44:49.935Z,84.63
2018-03-06T18:47:20.683Z,85.57
2018-03-06T18:50:00.458Z,90.73
2018-03-06T18:52:31.320Z,93.63
2018-03-06T18:55:02.294Z,86.63
2018-03-06T18:57:33.019Z,87.33
2018-03-06T19:00:11.083Z,87.60
2018-03-06T19:04:59.477Z,89.87
2018-03-06T19:07:30.457Z,94.20
2018-03-06T19:10:01.268Z,90.13
2018-03-06T19:12:32.904Z,85.27
2018-03-06T19:15:03.715Z,90.70
2018-03-06T19:17:35.390Z,91.87
2018-03-06T19:20:06.304Z,100.37
2018-03-06T19:22:37.162Z,94.17
2018-03-06T19:25:07.990Z,96.27
2018-03-06T19:27:38.667Z,95.13
2018-03-06T19:30:10.290Z,91.23
2018-03-06T19:32:41.102Z,90.63
2018-03-06T19:35:11.925Z,94.90
2018-03-06T19:37:42.721Z,95.27
2018-03-06T19:40:14.312Z,96.10
2018-03-06T19:42:45.362Z,101.33
2018-03-06T19:45:16.526Z,97.63
2018-03-06T19:47:48.241Z,94.67
2018-03-06T19:50:19.082Z,96.00
2018-03-06T19:52:49.967Z,90.10
2018-03-06T19:55:20.854Z,102.10
2018-03-06T19:57:52.560Z,98.80
2018-03-06T20:00:23.543Z,102.67
2018-03-06T20:02:58.063Z,96.27
2018-03-06T20:05:28.809Z,93.93
2018-03-06T20:07:59.701Z,95.47
2018-03-06T20:10:32.059Z,97.97
2018-03-06T20:13:02.825Z,98.73
2018-03-06T20:15:35.666Z,96.63
2018-03-06T20:18:06.529Z,93.03
2018-03-06T20:20:38.836Z,97.50
2018-03-06T20:23:10.003Z,98.07
2018-03-06T20:26:02.168Z,92.27
2018-03-06T20:28:34.401Z,93.40
2018-03-06T20:31:09.884Z,93.47
2018-03-06T20:33:41.832Z,85.00
2018-03-06T20:36:14.719Z,84.73
2018-03-06T20:38:52.009Z,78.43
2018-03-06T20:41:23.661Z,86.23
2018-03-06T20:43:56.029Z,86.57
2018-03-06T20:47:33.217Z,83.13
2018-03-06T20:50:05.018Z,92.60
2018-03-06T20:52:39.953Z,86.13
2018-03-06T20:55:13.493Z,86.17
2018-03-06T20:57:44.699Z,85.73
2018-03-06T21:00:15.808Z,87.53
2018-03-06T21:02:47.816Z,83.30
2018-03-06T21:05:18.692Z,92.03
2018-03-06T21:07:50.591Z,78.67
2018-03-06T21:10:22.401Z,78.50
2018-03-06T21:12:54.175Z,86.67
2018-03-06T21:15:25.043Z,86.50
2018-03-06T21:17:56.512Z,85.43
2018-03-06T21:20:28.306Z,85.27
2018-03-06T21:22:59.076Z,82.87
2018-03-06T21:25:30.793Z,88.60
2018-03-06T21:28:01.828Z,84.80
2018-03-06T21:30:32.826Z,89.27
2018-03-06T21:33:03.670Z,94.33
2018-03-06T21:35:35.273Z,88.83
2018-03-06T21:38:07.243Z,89.60
2018-03-06T21:40:38.241Z,94.97
2018-03-06T21:43:09.041Z,89.60
2018-03-06T21:45:39.874Z,92.67
2018-03-06T21:48:10.685Z,90.67
2018-03-06T21:50:42.406Z,92.23
2018-03-06T21:53:13.130Z,103.93
2018-03-06T21:55:43.940Z,105.80
2018-03-06T21:58:14.846Z,100.37
2018-03-06T22:00:45.589Z,95.57
2018-03-06T22:03:16.833Z,96.83
2018-03-06T22:05:48.523Z,109.20
2018-03-06T22:08:19.547Z,105.70
2018-03-06T22:10:50.357Z,99.83
2018-03-06T22:13:21.915Z,109.90
2018-03-06T22:15:54.365Z,94.60
2018-03-06T22:18:25.048Z,101.80
2018-03-06T22:20:56.644Z,109.13
2018-03-06T22:23:28.224Z,107.17
2018-03-06T22:25:59.153Z,109.87
2018-03-06T22:28:30.530Z,108.87
2018-03-06T22:31:01.663Z,107.63
2018-03-06T22:33:33.375Z,123.87
2018-03-06T22:36:03.977Z,111.10
2018-03-06T22:38:34.632Z,117.83
2018-03-06T22:41:05.317Z,122.63
2018-03-06T22:43:36.659Z,117.47
2018-03-06T22:46:07.438Z,111.70
2018-03-06T22:48:37.907Z,122.67
2018-03-06T22:51:08.348Z,124.80
2018-03-06T22:53:38.751Z,128.80
2018-03-06T22:56:09.464Z,113.80
2018-03-06T22:58:40.018Z,110.50
2018-03-06T23:01:10.372Z,118.67
2018-03-06T23:03:41.060Z,113.47
2018-03-06T23:06:15.757Z,109.50
2018-03-06T23:08:46.217Z,118.07
2018-03-06T23:11:17.779Z,118.40
2018-03-06T23:13:48.171Z,115.33
2018-03-06T23:16:18.592Z,114.90
2018-03-06T23:18:48.928Z,123.90
2018-03-06T23:21:19.843Z,120.83
2018-03-06T23:23:51.006Z,122.83
2018-03-06T23:26:21.636Z,121.43
2018-03-06T23:28:53.083Z,126.30
2018-03-06T23:31:23.478Z,118.43
2018-03-06T23:33:54.417Z,127.07
2018-03-06T23:36:26.440Z,121.77
2018-03-06T23:38:56.855Z,121.70
2018-03-06T23:41:27.519Z,128.53
2018-03-06T23:43:58.646Z,124.23
2018-03-06T23:46:29.055Z,129.23
2018-03-06T23:49:00.505Z,126.50
2018-03-06T23:51:30.914Z,139.77
2018-03-06T23:54:01.256Z,129.00
2018-03-06T23:56:31.618Z,132.23
2018-03-06T23:59:01.930Z,129.90
